sensor_id;sensor_type;location;lat;lon;timestamp;temperature;humidity
18101;DHT22;9177;49.156;8.142;2023-05-10T00:01:59;21.60;99.90
18101;DHT22;9177;49.156;8.142;2023-05-10T00:04:26;21.60;99.90
18101;DHT22;9177;49.156;8.142;2023-05-10T00:06:55;21.60;99.90
18101;DHT22;9177;49.156;8.142;2023-05-10T00:09:22;21.60;99.90
18101;DHT22;9177;49.156;8.142;2023-05-10T00:11:48;21.60;99.90
18101;DHT22;9177;49.156;8.142;2023-05-10T00:14:15;21.60;99.90
18101;DHT22;9177;49.156;8.142;2023-05-10T00:16:42;21.60;99.90
18101;DHT22;9177;49.156;8.142;2023-05-10T00:19:11;21.60;99.90
18101;DHT22;9177;49.156;8.142;2023-05-10T00:21:38;21.60;99.90
18101;DHT22;9177;49.156;8.142;2023-05-10T00:24:07;21.60;99.90
18101;DHT22;9177;49.156;8.142;2023-05-10T00:26:34;21.60;99.90
18101;DHT22;9177;49.156;8.142;2023-05-10T00:29:00;21.60;99.90
18101;DHT22;9177;49.156;8.142;2023-05-10T00:31:27;21.60;99.90
18101;DHT22;9177;49.156;8.142;2023-05-10T00:33:55;21.60;99.90
18101;DHT22;9177;49.156;8.142;2023-05-10T00:36:22;21.60;99.90
18101;DHT22;9177;49.156;8.142;2023-05-10T00:38:48;21.60;99.90
18101;DHT22;9177;49.156;8.142;2023-05-10T00:41:17;21.60;99.90
18101;DHT22;9177;49.156;8.142;2023-05-10T00:43:44;21.60;99.90
18101;DHT22;9177;49.156;8.142;2023-05-10T00:46:11;21.50;99.90
18101;DHT22;9177;49.156;8.142;2023-05-10T00:48:38;21.50;99.90
18101;DHT22;9177;49.156;8.142;2023-05-10T00:51:05;21.50;99.90
18101;DHT22;9177;49.156;8.142;2023-05-10T00:53:32;21.50;99.90
18101;DHT22;9177;49.156;8.142;2023-05-10T00:56:01;21.50;99.90
18101;DHT22;9177;49.156;8.142;2023-05-10T00:58:29;21.50;99.90
18101;DHT22;9177;49.156;8.142;2023-05-10T01:00:56;21.50;99.90
18101;DHT22;9177;49.156;8.142;2023-05-10T01:03:25;21.50;99.90
18101;DHT22;9177;49.156;8.142;2023-05-10T01:05:52;21.50;99.90
18101;DHT22;9177;49.156;8.142;2023-05-10T01:08:18;21.50;99.90
18101;DHT22;9177;49.156;8.142;2023-05-10T01:10:45;21.50;99.90
18101;DHT22;9177;49.156;8.142;2023-05-10T01:13:18;21.50;99.90
18101;DHT22;9177;49.156;8.142;2023-05-10T01:15:51;21.50;99.90
18101;DHT22;9177;49.156;8.142;2023-05-10T01:18:20;21.50;99.90
18101;DHT22;9177;49.156;8.142;2023-05-10T01:20:56;21.50;99.90
18101;DHT22;9177;49.156;8.142;2023-05-10T01:23:38;21.50;99.90
18101;DHT22;9177;49.156;8.142;2023-05-10T01:26:33;21.50;99.90
18101;DHT22;9177;49.156;8.142;2023-05-10T01:29:19;21.50;99.90
18101;DHT22;9177;49.156;8.142;2023-05-10T01:32:16;21.50;99.90
18101;DHT22;9177;49.156;8.142;2023-05-10T01:34:50;21.50;99.90
18101;DHT22;9177;49.156;8.142;2023-05-10T01:37:23;21.50;99.90
18101;DHT22;9177;49.156;8.142;2023-05-10T01:39:58;21.50;99.90
18101;DHT22;9177;49.156;8.142;2023-05-10T01:42:30;21.50;99.90
18101;DHT22;9177;49.156;8.142;2023-05-10T01:45:13;21.50;99.90
18101;DHT22;9177;49.156;8.142;2023-05-10T01:47:43;21.50;99.90
18101;DHT22;9177;49.156;8.142;2023-05-10T01:50:15;21.50;99.90
18101;DHT22;9177;49.156;8.142;2023-05-10T01:52:47;21.50;99.90
18101;DHT22;9177;49.156;8.142;2023-05-10T01:55:18;21.50;99.90
18101;DHT22;9177;49.156;8.142;2023-05-10T01:57:49;21.50;99.90
18101;DHT22;9177;49.156;8.142;2023-05-10T02:00:17;21.50;99.90
18101;DHT22;9177;49.156;8.142;2023-05-10T02:02:48;21.50;99.90
18101;DHT22;9177;49.156;8.142;2023-05-10T02:05:17;21.50;99.90
18101;DHT22;9177;49.156;8.142;2023-05-10T02:07:45;21.50;99.90
18101;DHT22;9177;49.156;8.142;2023-05-10T02:10:12;21.50;99.90
18101;DHT22;9177;49.156;8.142;2023-05-10T02:12:42;21.50;99.90
18101;DHT22;9177;49.156;8.142;2023-05-10T02:15:15;21.50;99.90
18101;DHT22;9177;49.156;8.142;2023-05-10T02:17:44;21.40;99.90
18101;DHT22;9177;49.156;8.142;2023-05-10T02:20:16;21.50;99.90
18101;DHT22;9177;49.156;8.142;2023-05-10T02:22:45;21.40;99.90
18101;DHT22;9177;49.156;8.142;2023-05-10T02:25:14;21.50;99.90
18101;DHT22;9177;49.156;8.142;2023-05-10T02:27:42;21.50;99.90
18101;DHT22;9177;49.156;8.142;2023-05-10T02:30:19;21.40;99.90
18101;DHT22;9177;49.156;8.142;2023-05-10T02:32:46;21.40;99.90
18101;DHT22;9177;49.156;8.142;2023-05-10T02:35:15;21.40;99.90
18101;DHT22;9177;49.156;8.142;2023-05-10T02:37:43;21.40;99.90
18101;DHT22;9177;49.156;8.142;2023-05-10T02:40:12;21.40;99.90
18101;DHT22;9177;49.156;8.142;2023-05-10T02:42:41;21.50;99.90
18101;DHT22;9177;49.156;8.142;2023-05-10T02:45:12;21.40;99.90
18101;DHT22;9177;49.156;8.142;2023-05-10T02:47:40;21.40;99.90
18101;DHT22;9177;49.156;8.142;2023-05-10T02:50:08;21.40;99.90
18101;DHT22;9177;49.156;8.142;2023-05-10T02:52:40;21.40;99.90
18101;DHT22;9177;49.156;8.142;2023-05-10T02:55:11;21.40;99.90
18101;DHT22;9177;49.156;8.142;2023-05-10T02:57:41;21.40;99.90
18101;DHT22;9177;49.156;8.142;2023-05-10T03:00:10;21.40;99.90
18101;DHT22;9177;49.156;8.142;2023-05-10T03:02:37;21.40;99.90
18101;DHT22;9177;49.156;8.142;2023-05-10T03:05:05;21.40;99.90
18101;DHT22;9177;49.156;8.142;2023-05-10T03:07:32;21.40;99.90
18101;DHT22;9177;49.156;8.142;2023-05-10T03:10:01;21.40;99.90
18101;DHT22;9177;49.156;8.142;2023-05-10T03:12:33;21.40;99.90
18101;DHT22;9177;49.156;8.142;2023-05-10T03:15:11;21.40;99.90
18101;DHT22;9177;49.156;8.142;2023-05-10T03:17:47;21.40;99.90
18101;DHT22;9177;49.156;8.142;2023-05-10T03:20:21;21.40;99.90
18101;DHT22;9177;49.156;8.142;2023-05-10T03:22:52;21.40;99.90
18101;DHT22;9177;49.156;8.142;2023-05-10T03:25:21;21.40;99.90
18101;DHT22;9177;49.156;8.142;2023-05-10T03:27:50;21.40;99.90
18101;DHT22;9177;49.156;8.142;2023-05-10T03:30:19;21.40;99.90
18101;DHT22;9177;49.156;8.142;2023-05-10T03:32:46;21.40;99.90
18101;DHT22;9177;49.156;8.142;2023-05-10T03:35:13;21.40;99.90
18101;DHT22;9177;49.156;8.142;2023-05-10T03:37:40;21.40;99.90
18101;DHT22;9177;49.156;8.142;2023-05-10T03:40:08;21.40;99.90
18101;DHT22;9177;49.156;8.142;2023-05-10T03:42:37;21.40;99.90
18101;DHT22;9177;49.156;8.142;2023-05-10T03:45:04;21.40;99.90
18101;DHT22;9177;49.156;8.142;2023-05-10T03:47:31;21.40;99.90
18101;DHT22;9177;49.156;8.142;2023-05-10T03:49:58;21.40;99.90
18101;DHT22;9177;49.156;8.142;2023-05-10T03:52:27;21.40;99.90
18101;DHT22;9177;49.156;8.142;2023-05-10T03:54:54;21.40;99.90
18101;DHT22;9177;49.156;8.142;2023-05-10T03:57:21;21.40;99.90
18101;DHT22;9177;49.156;8.142;2023-05-10T03:59:51;21.40;99.90
18101;DHT22;9177;49.156;8.142;2023-05-10T04:02:18;21.40;99.90
18101;DHT22;9177;49.156;8.142;2023-05-10T04:04:45;21.40;99.90
18101;DHT22;9177;49.156;8.142;2023-05-10T04:07:12;21.40;99.90
18101;DHT22;9177;49.156;8.142;2023-05-10T04:09:39;21.40;99.90
18101;DHT22;9177;49.156;8.142;2023-05-10T04:12:06;21.40;99.90
18101;DHT22;9177;49.156;8.142;2023-05-10T04:14:33;21.40;99.90
18101;DHT22;9177;49.156;8.142;2023-05-10T04:17:01;21.40;99.90
18101;DHT22;9177;49.156;8.142;2023-05-10T04:19:29;21.40;99.90
18101;DHT22;9177;49.156;8.142;2023-05-10T04:21:56;21.40;99.90
18101;DHT22;9177;49.156;8.142;2023-05-10T04:24:23;21.40;99.90
18101;DHT22;9177;49.156;8.142;2023-05-10T04:26:51;21.40;99.90
18101;DHT22;9177;49.156;8.142;2023-05-10T04:29:18;21.50;99.90
18101;DHT22;9177;49.156;8.142;2023-05-10T04:31:44;21.40;99.90
18101;DHT22;9177;49.156;8.142;2023-05-10T04:34:12;21.50;99.90
18101;DHT22;9177;49.156;8.142;2023-05-10T04:36:39;21.50;99.90
18101;DHT22;9177;49.156;8.142;2023-05-10T04:39:06;21.50;99.90
18101;DHT22;9177;49.156;8.142;2023-05-10T04:41:35;21.50;99.90
18101;DHT22;9177;49.156;8.142;2023-05-10T04:44:04;21.50;99.90
18101;DHT22;9177;49.156;8.142;2023-05-10T04:46:32;21.50;99.90
18101;DHT22;9177;49.156;8.142;2023-05-10T04:48:59;21.50;99.90
18101;DHT22;9177;49.156;8.142;2023-05-10T04:51:28;21.50;99.90
18101;DHT22;9177;49.156;8.142;2023-05-10T04:53:54;21.50;99.90
18101;DHT22;9177;49.156;8.142;2023-05-10T04:56:21;21.50;99.90
18101;DHT22;9177;49.156;8.142;2023-05-10T04:58:48;21.50;99.90
18101;DHT22;9177;49.156;8.142;2023-05-10T05:01:15;21.50;99.90
18101;DHT22;9177;49.156;8.142;2023-05-10T05:03:42;21.50;99.90
18101;DHT22;9177;49.156;8.142;2023-05-10T05:06:12;21.50;99.90
18101;DHT22;9177;49.156;8.142;2023-05-10T05:08:40;21.50;99.90
18101;DHT22;9177;49.156;8.142;2023-05-10T05:11:07;21.50;99.90
18101;DHT22;9177;49.156;8.142;2023-05-10T05:13:34;21.50;99.90
18101;DHT22;9177;49.156;8.142;2023-05-10T05:16:05;21.50;99.90
18101;DHT22;9177;49.156;8.142;2023-05-10T05:18:31;21.50;99.90
18101;DHT22;9177;49.156;8.142;2023-05-10T05:20:59;21.50;99.90
18101;DHT22;9177;49.156;8.142;2023-05-10T05:23:26;21.50;99.90
18101;DHT22;9177;49.156;8.142;2023-05-10T05:25:54;21.50;99.90
18101;DHT22;9177;49.156;8.142;2023-05-10T05:28:21;21.50;99.90
18101;DHT22;9177;49.156;8.142;2023-05-10T05:30:48;21.50;99.90
18101;DHT22;9177;49.156;8.142;2023-05-10T05:33:14;21.50;99.90
18101;DHT22;9177;49.156;8.142;2023-05-10T05:35:42;21.50;99.90
18101;DHT22;9177;49.156;8.142;2023-05-10T05:38:13;21.50;99.90
18101;DHT22;9177;49.156;8.142;2023-05-10T05:40:39;21.50;99.90
18101;DHT22;9177;49.156;8.142;2023-05-10T05:43:08;21.50;99.90
18101;DHT22;9177;49.156;8.142;2023-05-10T05:45:34;21.60;99.90
18101;DHT22;9177;49.156;8.142;2023-05-10T05:48:01;21.50;99.90
18101;DHT22;9177;49.156;8.142;2023-05-10T05:50:28;21.60;99.90
18101;DHT22;9177;49.156;8.142;2023-05-10T05:52:55;21.50;99.90
18101;DHT22;9177;49.156;8.142;2023-05-10T05:55:22;21.50;99.90
18101;DHT22;9177;49.156;8.142;2023-05-10T05:57:51;21.50;99.90
18101;DHT22;9177;49.156;8.142;2023-05-10T06:00:19;21.50;99.90
18101;DHT22;9177;49.156;8.142;2023-05-10T06:02:49;21.50;99.90
18101;DHT22;9177;49.156;8.142;2023-05-10T06:05:16;21.50;99.90
18101;DHT22;9177;49.156;8.142;2023-05-10T06:07:43;21.50;99.90
18101;DHT22;9177;49.156;8.142;2023-05-10T06:10:10;21.50;99.90
18101;DHT22;9177;49.156;8.142;2023-05-10T06:12:37;21.50;99.90
18101;DHT22;9177;49.156;8.142;2023-05-10T06:15:04;21.50;99.90
18101;DHT22;9177;49.156;8.142;2023-05-10T06:17:32;21.50;99.90
18101;DHT22;9177;49.156;8.142;2023-05-10T06:19:59;21.50;99.90
18101;DHT22;9177;49.156;8.142;2023-05-10T06:22:26;21.50;99.90
18101;DHT22;9177;49.156;8.142;2023-05-10T06:24:53;21.60;99.90
18101;DHT22;9177;49.156;8.142;2023-05-10T06:27:20;21.50;99.90
18101;DHT22;9177;49.156;8.142;2023-05-10T06:29:47;21.50;99.90
18101;DHT22;9177;49.156;8.142;2023-05-10T06:32:14;21.50;99.90
18101;DHT22;9177;49.156;8.142;2023-05-10T06:34:42;21.50;99.90
18101;DHT22;9177;49.156;8.142;2023-05-10T06:37:10;21.50;99.90
18101;DHT22;9177;49.156;8.142;2023-05-10T06:39:37;21.50;99.90
18101;DHT22;9177;49.156;8.142;2023-05-10T06:42:04;21.50;99.90
18101;DHT22;9177;49.156;8.142;2023-05-10T06:44:31;21.50;99.90
18101;DHT22;9177;49.156;8.142;2023-05-10T06:46:58;21.50;99.90
18101;DHT22;9177;49.156;8.142;2023-05-10T06:49:24;21.50;99.90
18101;DHT22;9177;49.156;8.142;2023-05-10T06:51:53;21.50;99.90
18101;DHT22;9177;49.156;8.142;2023-05-10T06:54:20;21.50;99.90
18101;DHT22;9177;49.156;8.142;2023-05-10T06:56:48;21.40;99.90
18101;DHT22;9177;49.156;8.142;2023-05-10T06:59:15;21.40;99.90
18101;DHT22;9177;49.156;8.142;2023-05-10T07:01:42;21.40;99.90
18101;DHT22;9177;49.156;8.142;2023-05-10T07:04:09;21.50;99.90
18101;DHT22;9177;49.156;8.142;2023-05-10T07:06:36;21.40;99.90
18101;DHT22;9177;49.156;8.142;2023-05-10T07:09:04;21.50;99.90
18101;DHT22;9177;49.156;8.142;2023-05-10T07:11:31;21.50;99.90
18101;DHT22;9177;49.156;8.142;2023-05-10T07:13:58;21.50;99.90
18101;DHT22;9177;49.156;8.142;2023-05-10T07:16:25;21.50;99.90
18101;DHT22;9177;49.156;8.142;2023-05-10T07:18:52;21.50;99.90
18101;DHT22;9177;49.156;8.142;2023-05-10T07:21:20;21.50;99.90
18101;DHT22;9177;49.156;8.142;2023-05-10T07:23:49;21.50;99.90
18101;DHT22;9177;49.156;8.142;2023-05-10T07:26:18;21.50;99.90
18101;DHT22;9177;49.156;8.142;2023-05-10T07:28:46;21.50;99.90
18101;DHT22;9177;49.156;8.142;2023-05-10T07:31:13;21.50;99.90
18101;DHT22;9177;49.156;8.142;2023-05-10T07:33:40;21.50;99.90
18101;DHT22;9177;49.156;8.142;2023-05-10T07:36:07;21.50;99.90
18101;DHT22;9177;49.156;8.142;2023-05-10T07:38:34;21.50;99.90
18101;DHT22;9177;49.156;8.142;2023-05-10T07:41:01;21.60;99.90
18101;DHT22;9177;49.156;8.142;2023-05-10T07:43:29;21.50;99.90
18101;DHT22;9177;49.156;8.142;2023-05-10T07:45:56;21.50;99.90
18101;DHT22;9177;49.156;8.142;2023-05-10T07:48:25;21.50;99.90
18101;DHT22;9177;49.156;8.142;2023-05-10T07:50:52;21.50;99.90
18101;DHT22;9177;49.156;8.142;2023-05-10T07:53:19;21.50;99.90
18101;DHT22;9177;49.156;8.142;2023-05-10T07:55:50;21.50;99.90
18101;DHT22;9177;49.156;8.142;2023-05-10T07:58:17;21.50;99.90
18101;DHT22;9177;49.156;8.142;2023-05-10T08:00:48;21.50;99.90
18101;DHT22;9177;49.156;8.142;2023-05-10T08:03:15;21.50;99.90
18101;DHT22;9177;49.156;8.142;2023-05-10T08:05:42;21.50;99.90
18101;DHT22;9177;49.156;8.142;2023-05-10T08:08:09;21.50;99.90
18101;DHT22;9177;49.156;8.142;2023-05-10T08:10:36;21.50;99.90
18101;DHT22;9177;49.156;8.142;2023-05-10T08:13:03;21.50;99.90
18101;DHT22;9177;49.156;8.142;2023-05-10T08:15:33;21.50;99.90
18101;DHT22;9177;49.156;8.142;2023-05-10T08:18:01;21.50;99.90
18101;DHT22;9177;49.156;8.142;2023-05-10T08:20:28;21.60;99.90
18101;DHT22;9177;49.156;8.142;2023-05-10T08:22:55;21.50;99.90
18101;DHT22;9177;49.156;8.142;2023-05-10T08:25:21;21.60;99.90
18101;DHT22;9177;49.156;8.142;2023-05-10T08:27:48;21.60;99.90
18101;DHT22;9177;49.156;8.142;2023-05-10T08:30:15;21.60;99.90
18101;DHT22;9177;49.156;8.142;2023-05-10T08:32:42;21.60;99.90
18101;DHT22;9177;49.156;8.142;2023-05-10T08:35:11;21.60;99.90
18101;DHT22;9177;49.156;8.142;2023-05-10T08:37:38;21.60;99.90
18101;DHT22;9177;49.156;8.142;2023-05-10T08:40:06;21.50;99.90
18101;DHT22;9177;49.156;8.142;2023-05-10T08:42:34;21.50;99.90
18101;DHT22;9177;49.156;8.142;2023-05-10T08:45:05;21.50;99.90
18101;DHT22;9177;49.156;8.142;2023-05-10T08:47:34;21.50;99.90
18101;DHT22;9177;49.156;8.142;2023-05-10T08:50:02;21.50;99.90
18101;DHT22;9177;49.156;8.142;2023-05-10T08:52:32;21.50;99.90
18101;DHT22;9177;49.156;8.142;2023-05-10T08:54:59;21.60;99.90
18101;DHT22;9177;49.156;8.142;2023-05-10T08:57:29;21.60;99.90
18101;DHT22;9177;49.156;8.142;2023-05-10T08:59:56;21.60;99.90
18101;DHT22;9177;49.156;8.142;2023-05-10T09:02:23;21.60;99.90
18101;DHT22;9177;49.156;8.142;2023-05-10T09:04:50;21.60;99.90
18101;DHT22;9177;49.156;8.142;2023-05-10T09:07:20;21.60;99.90
18101;DHT22;9177;49.156;8.142;2023-05-10T09:09:49;21.60;99.90
18101;DHT22;9177;49.156;8.142;2023-05-10T09:12:16;21.70;99.90
18101;DHT22;9177;49.156;8.142;2023-05-10T09:14:43;21.70;99.90
18101;DHT22;9177;49.156;8.142;2023-05-10T09:17:11;21.70;99.90
18101;DHT22;9177;49.156;8.142;2023-05-10T09:19:38;21.70;99.90
18101;DHT22;9177;49.156;8.142;2023-05-10T09:22:05;21.70;99.90
18101;DHT22;9177;49.156;8.142;2023-05-10T09:24:32;21.70;99.90
18101;DHT22;9177;49.156;8.142;2023-05-10T09:27:01;21.70;99.90
18101;DHT22;9177;49.156;8.142;2023-05-10T09:29:39;21.70;99.90
18101;DHT22;9177;49.156;8.142;2023-05-10T09:32:06;21.70;99.90
18101;DHT22;9177;49.156;8.142;2023-05-10T09:34:33;21.70;99.90
18101;DHT22;9177;49.156;8.142;2023-05-10T09:37:02;21.70;99.90
18101;DHT22;9177;49.156;8.142;2023-05-10T09:39:34;21.70;99.90
18101;DHT22;9177;49.156;8.142;2023-05-10T09:42:04;21.70;99.90
18101;DHT22;9177;49.156;8.142;2023-05-10T09:44:31;21.70;99.90
18101;DHT22;9177;49.156;8.142;2023-05-10T09:46:59;21.70;99.90
18101;DHT22;9177;49.156;8.142;2023-05-10T09:49:25;21.70;99.90
18101;DHT22;9177;49.156;8.142;2023-05-10T09:52:03;21.70;99.90
18101;DHT22;9177;49.156;8.142;2023-05-10T09:54:31;21.70;99.90
18101;DHT22;9177;49.156;8.142;2023-05-10T09:56:58;21.70;99.90
18101;DHT22;9177;49.156;8.142;2023-05-10T09:59:26;21.70;99.90
18101;DHT22;9177;49.156;8.142;2023-05-10T10:01:56;21.70;99.90
18101;DHT22;9177;49.156;8.142;2023-05-10T10:04:23;21.70;99.90
18101;DHT22;9177;49.156;8.142;2023-05-10T10:07:01;21.70;99.90
18101;DHT22;9177;49.156;8.142;2023-05-10T10:09:28;21.70;99.90
18101;DHT22;9177;49.156;8.142;2023-05-10T10:11:55;21.70;99.90
18101;DHT22;9177;49.156;8.142;2023-05-10T10:14:22;21.70;99.90
18101;DHT22;9177;49.156;8.142;2023-05-10T10:16:51;21.70;99.90
18101;DHT22;9177;49.156;8.142;2023-05-10T10:19:18;21.70;99.90
18101;DHT22;9177;49.156;8.142;2023-05-10T10:21:46;21.70;99.90
18101;DHT22;9177;49.156;8.142;2023-05-10T10:24:15;21.80;99.90
18101;DHT22;9177;49.156;8.142;2023-05-10T10:26:43;21.80;99.90
18101;DHT22;9177;49.156;8.142;2023-05-10T10:29:19;21.80;99.90
18101;DHT22;9177;49.156;8.142;2023-05-10T10:31:53;21.80;99.90
18101;DHT22;9177;49.156;8.142;2023-05-10T10:34:26;21.80;99.90
18101;DHT22;9177;49.156;8.142;2023-05-10T10:36:55;21.80;99.90
18101;DHT22;9177;49.156;8.142;2023-05-10T10:39:23;21.80;99.90
18101;DHT22;9177;49.156;8.142;2023-05-10T10:41:51;21.80;99.90
18101;DHT22;9177;49.156;8.142;2023-05-10T10:44:37;21.80;99.90
18101;DHT22;9177;49.156;8.142;2023-05-10T10:47:21;21.80;99.90
18101;DHT22;9177;49.156;8.142;2023-05-10T10:49:51;21.80;99.90
18101;DHT22;9177;49.156;8.142;2023-05-10T10:52:23;21.80;99.90
18101;DHT22;9177;49.156;8.142;2023-05-10T10:54:58;21.80;99.90
18101;DHT22;9177;49.156;8.142;2023-05-10T10:57:25;21.70;99.90
18101;DHT22;9177;49.156;8.142;2023-05-10T11:00:19;21.70;99.90
18101;DHT22;9177;49.156;8.142;2023-05-10T11:02:49;21.70;99.90
18101;DHT22;9177;49.156;8.142;2023-05-10T11:08:15;21.70;99.90
18101;DHT22;9177;49.156;8.142;2023-05-10T11:11:01;21.70;99.90
18101;DHT22;9177;49.156;8.142;2023-05-10T11:13:29;21.70;99.90
18101;DHT22;9177;49.156;8.142;2023-05-10T11:15:57;21.70;99.90
18101;DHT22;9177;49.156;8.142;2023-05-10T11:18:27;21.70;99.90
18101;DHT22;9177;49.156;8.142;2023-05-10T11:20:57;21.70;99.90
18101;DHT22;9177;49.156;8.142;2023-05-10T11:23:30;21.70;99.90
18101;DHT22;9177;49.156;8.142;2023-05-10T11:25:59;21.70;99.90
18101;DHT22;9177;49.156;8.142;2023-05-10T11:28:26;21.80;99.90
18101;DHT22;9177;49.156;8.142;2023-05-10T11:30:54;21.80;99.90
18101;DHT22;9177;49.156;8.142;2023-05-10T11:33:21;21.80;99.90
18101;DHT22;9177;49.156;8.142;2023-05-10T11:35:49;21.80;99.90
18101;DHT22;9177;49.156;8.142;2023-05-10T11:38:16;21.90;99.90
18101;DHT22;9177;49.156;8.142;2023-05-10T11:40:43;21.90;99.90
18101;DHT22;9177;49.156;8.142;2023-05-10T11:43:10;21.90;99.90
18101;DHT22;9177;49.156;8.142;2023-05-10T11:45:38;22.00;99.90
18101;DHT22;9177;49.156;8.142;2023-05-10T11:48:06;22.00;99.90
18101;DHT22;9177;49.156;8.142;2023-05-10T11:50:33;22.00;99.90
18101;DHT22;9177;49.156;8.142;2023-05-10T11:53:02;22.00;99.90
18101;DHT22;9177;49.156;8.142;2023-05-10T11:55:29;22.10;99.90
18101;DHT22;9177;49.156;8.142;2023-05-10T11:58:01;22.10;99.90
18101;DHT22;9177;49.156;8.142;2023-05-10T12:00:29;22.10;99.90
18101;DHT22;9177;49.156;8.142;2023-05-10T12:02:57;22.10;99.90
18101;DHT22;9177;49.156;8.142;2023-05-10T12:05:24;22.10;99.90
18101;DHT22;9177;49.156;8.142;2023-05-10T12:07:51;22.10;99.90
18101;DHT22;9177;49.156;8.142;2023-05-10T12:10:25;22.10;99.90
18101;DHT22;9177;49.156;8.142;2023-05-10T12:12:53;22.10;99.90
18101;DHT22;9177;49.156;8.142;2023-05-10T12:15:21;22.10;99.90
18101;DHT22;9177;49.156;8.142;2023-05-10T12:17:49;22.10;99.90
18101;DHT22;9177;49.156;8.142;2023-05-10T12:20:17;22.20;99.90
18101;DHT22;9177;49.156;8.142;2023-05-10T12:22:46;22.20;99.90
18101;DHT22;9177;49.156;8.142;2023-05-10T12:25:13;22.20;99.90
18101;DHT22;9177;49.156;8.142;2023-05-10T12:27:42;22.20;99.90
18101;DHT22;9177;49.156;8.142;2023-05-10T12:30:19;22.10;99.90
18101;DHT22;9177;49.156;8.142;2023-05-10T12:32:46;22.20;99.90
18101;DHT22;9177;49.156;8.142;2023-05-10T12:35:13;22.10;99.90
18101;DHT22;9177;49.156;8.142;2023-05-10T12:37:41;22.20;99.90
18101;DHT22;9177;49.156;8.142;2023-05-10T12:40:10;22.20;99.90
18101;DHT22;9177;49.156;8.142;2023-05-10T12:42:38;22.20;99.90
18101;DHT22;9177;49.156;8.142;2023-05-10T12:45:08;22.20;99.90
18101;DHT22;9177;49.156;8.142;2023-05-10T12:47:35;22.30;99.90
18101;DHT22;9177;49.156;8.142;2023-05-10T12:50:03;22.30;99.90
18101;DHT22;9177;49.156;8.142;2023-05-10T12:52:31;22.30;99.90
18101;DHT22;9177;49.156;8.142;2023-05-10T12:54:58;22.30;99.90
18101;DHT22;9177;49.156;8.142;2023-05-10T12:57:26;22.30;99.90
18101;DHT22;9177;49.156;8.142;2023-05-10T12:59:54;22.30;99.90
18101;DHT22;9177;49.156;8.142;2023-05-10T13:02:22;22.30;99.90
18101;DHT22;9177;49.156;8.142;2023-05-10T13:04:50;22.30;99.90
18101;DHT22;9177;49.156;8.142;2023-05-10T13:07:16;22.30;99.90
18101;DHT22;9177;49.156;8.142;2023-05-10T13:09:43;22.30;99.90
18101;DHT22;9177;49.156;8.142;2023-05-10T13:12:10;22.30;99.90
18101;DHT22;9177;49.156;8.142;2023-05-10T13:14:37;22.30;99.90
18101;DHT22;9177;49.156;8.142;2023-05-10T13:17:06;22.30;99.90
18101;DHT22;9177;49.156;8.142;2023-05-10T13:19:35;22.30;99.90
18101;DHT22;9177;49.156;8.142;2023-05-10T13:22:02;22.30;99.90
18101;DHT22;9177;49.156;8.142;2023-05-10T13:24:29;22.30;99.90
18101;DHT22;9177;49.156;8.142;2023-05-10T13:26:56;22.30;99.90
18101;DHT22;9177;49.156;8.142;2023-05-10T13:29:23;22.30;99.90
18101;DHT22;9177;49.156;8.142;2023-05-10T13:31:50;22.30;99.90
18101;DHT22;9177;49.156;8.142;2023-05-10T13:34:18;22.40;99.90
18101;DHT22;9177;49.156;8.142;2023-05-10T13:36:48;22.50;99.90
18101;DHT22;9177;49.156;8.142;2023-05-10T13:39:15;22.50;99.90
18101;DHT22;9177;49.156;8.142;2023-05-10T13:41:42;22.50;99.90
18101;DHT22;9177;49.156;8.142;2023-05-10T13:44:09;22.50;99.90
18101;DHT22;9177;49.156;8.142;2023-05-10T13:46:36;22.40;99.90
18101;DHT22;9177;49.156;8.142;2023-05-10T13:49:04;22.40;99.90
18101;DHT22;9177;49.156;8.142;2023-05-10T13:51:31;22.40;99.90
18101;DHT22;9177;49.156;8.142;2023-05-10T13:53:59;22.50;99.90
18101;DHT22;9177;49.156;8.142;2023-05-10T13:56:26;22.50;99.90
18101;DHT22;9177;49.156;8.142;2023-05-10T13:58:53;22.50;99.90
18101;DHT22;9177;49.156;8.142;2023-05-10T14:01:20;22.50;99.90
18101;DHT22;9177;49.156;8.142;2023-05-10T14:03:47;22.50;99.90
18101;DHT22;9177;49.156;8.142;2023-05-10T14:06:15;22.50;99.90
18101;DHT22;9177;49.156;8.142;2023-05-10T14:08:42;22.50;99.90
18101;DHT22;9177;49.156;8.142;2023-05-10T14:11:10;22.50;99.90
18101;DHT22;9177;49.156;8.142;2023-05-10T14:13:38;22.40;99.90
18101;DHT22;9177;49.156;8.142;2023-05-10T14:16:05;22.40;99.90
18101;DHT22;9177;49.156;8.142;2023-05-10T14:18:32;22.40;99.90
18101;DHT22;9177;49.156;8.142;2023-05-10T14:20:59;22.50;99.90
18101;DHT22;9177;49.156;8.142;2023-05-10T14:23:26;22.50;99.90
18101;DHT22;9177;49.156;8.142;2023-05-10T14:25:54;22.50;99.90
18101;DHT22;9177;49.156;8.142;2023-05-10T14:28:22;22.50;99.90
18101;DHT22;9177;49.156;8.142;2023-05-10T14:30:50;22.50;99.90
18101;DHT22;9177;49.156;8.142;2023-05-10T14:33:17;22.50;99.90
18101;DHT22;9177;49.156;8.142;2023-05-10T14:35:44;22.50;99.90
18101;DHT22;9177;49.156;8.142;2023-05-10T14:38:12;22.50;99.90
18101;DHT22;9177;49.156;8.142;2023-05-10T14:40:41;22.50;99.90
18101;DHT22;9177;49.156;8.142;2023-05-10T14:43:09;22.50;99.90
18101;DHT22;9177;49.156;8.142;2023-05-10T14:45:37;22.50;99.90
18101;DHT22;9177;49.156;8.142;2023-05-10T14:48:04;22.50;99.90
18101;DHT22;9177;49.156;8.142;2023-05-10T14:50:31;22.50;99.90
18101;DHT22;9177;49.156;8.142;2023-05-10T14:52:58;22.50;99.90
18101;DHT22;9177;49.156;8.142;2023-05-10T14:55:25;22.50;99.90
18101;DHT22;9177;49.156;8.142;2023-05-10T14:57:52;22.50;99.90
18101;DHT22;9177;49.156;8.142;2023-05-10T15:00:20;22.50;99.90
18101;DHT22;9177;49.156;8.142;2023-05-10T15:02:49;22.40;99.90
18101;DHT22;9177;49.156;8.142;2023-05-10T15:05:16;22.40;99.80
18101;DHT22;9177;49.156;8.142;2023-05-10T15:07:43;22.40;99.80
18101;DHT22;9177;49.156;8.142;2023-05-10T15:10:10;22.40;99.70
18101;DHT22;9177;49.156;8.142;2023-05-10T15:12:38;22.40;99.60
18101;DHT22;9177;49.156;8.142;2023-05-10T15:15:06;22.40;99.70
18101;DHT22;9177;49.156;8.142;2023-05-10T15:17:33;22.40;99.70
18101;DHT22;9177;49.156;8.142;2023-05-10T15:20:02;22.40;99.40
18101;DHT22;9177;49.156;8.142;2023-05-10T15:22:30;22.40;99.40
18101;DHT22;9177;49.156;8.142;2023-05-10T15:24:59;22.40;99.20
18101;DHT22;9177;49.156;8.142;2023-05-10T15:27:27;22.40;99.60
18101;DHT22;9177;49.156;8.142;2023-05-10T15:29:53;22.40;99.40
18101;DHT22;9177;49.156;8.142;2023-05-10T15:32:21;22.40;99.40
18101;DHT22;9177;49.156;8.142;2023-05-10T15:34:47;22.30;99.20
18101;DHT22;9177;49.156;8.142;2023-05-10T15:37:16;22.30;99.40
18101;DHT22;9177;49.156;8.142;2023-05-10T15:39:44;22.30;99.30
18101;DHT22;9177;49.156;8.142;2023-05-10T15:42:11;22.30;99.50
18101;DHT22;9177;49.156;8.142;2023-05-10T15:44:38;22.20;99.60
18101;DHT22;9177;49.156;8.142;2023-05-10T15:47:05;22.20;99.40
18101;DHT22;9177;49.156;8.142;2023-05-10T15:49:32;22.20;99.50
18101;DHT22;9177;49.156;8.142;2023-05-10T15:51:59;22.20;99.40
18101;DHT22;9177;49.156;8.142;2023-05-10T15:54:28;22.20;99.40
18101;DHT22;9177;49.156;8.142;2023-05-10T15:56:54;22.20;99.30